Time;durP1;ratioP1;P1;durP2;ratioP2;P2;SDS_P1;SDS_P2;PMS_P1;PMS_P2;Temp;Humidity;BMP_temperature;BMP_pressure;BME280_temperature;BME280_humidity;BME280_pressure;Samples;Min_cycle;Max_cycle;Signal;HPM_P1;HPM_P2
2021/12/14 00:01:16;;;;;;;12.97;11.67;;;6.30;99.90;;;;;;5015413;28;20194;-87
2021/12/14 00:03:46;;;;;;;12.87;11.57;;;6.30;99.90;;;;;;5014413;28;20256;-87
2021/12/14 00:06:14;;;;;;;13.93;11.60;;;6.40;99.90;;;;;;5014809;28;20253;-87
2021/12/14 00:08:55;;;;;;;13.43;12.03;;;6.40;99.90;;;;;;5015460;28;20236;-87
2021/12/14 00:16:58;;;;;;;12.83;11.47;;;6.60;99.90;;;;;;4981799;28;20208;-87
2021/12/14 00:19:25;;;;;;;12.73;11.43;;;6.60;99.90;;;;;;5014183;28;20273;-87
2021/12/14 00:21:54;;;;;;;14.60;12.10;;;6.60;99.90;;;;;;5015751;28;20243;-86
2021/12/14 00:24:23;;;;;;;13.40;11.93;;;6.70;99.90;;;;;;4980027;28;20204;-86
2021/12/14 00:26:54;;;;;;;14.77;12.73;;;6.60;99.90;;;;;;4940682;28;20196;-87
2021/12/14 00:29:27;;;;;;;14.67;12.13;;;6.60;99.90;;;;;;4946140;28;20283;-87
2021/12/14 00:31:57;;;;;;;13.67;12.40;;;6.60;99.90;;;;;;4934696;28;20693;-85
2021/12/14 00:34:35;;;;;;;13.87;11.93;;;6.60;99.90;;;;;;4957557;28;20260;-85
2021/12/14 00:37:02;;;;;;;13.70;11.37;;;6.60;99.90;;;;;;4949710;28;20255;-87
2021/12/14 00:39:28;;;;;;;13.10;11.80;;;6.40;99.90;;;;;;4942437;28;20308;-87
2021/12/14 00:41:54;;;;;;;12.57;11.27;;;6.40;99.90;;;;;;4946280;28;20169;-85
2021/12/14 00:44:21;;;;;;;12.87;11.50;;;6.40;99.90;;;;;;4953261;28;20212;-85
2021/12/14 00:46:47;;;;;;;14.20;12.43;;;6.40;99.90;;;;;;4923896;28;20192;-86
2021/12/14 00:49:15;;;;;;;12.27;10.97;;;6.40;99.90;;;;;;4939927;28;20221;-86
2021/12/14 00:51:41;;;;;;;13.57;11.83;;;6.40;99.90;;;;;;4934629;28;20622;-86
2021/12/14 00:54:12;;;;;;;13.50;11.53;;;6.30;99.90;;;;;;4933448;28;20721;-87
2021/12/14 00:56:40;;;;;;;13.00;11.27;;;6.30;99.90;;;;;;4933994;28;20230;-85
2021/12/14 00:59:08;;;;;;;12.30;11.20;;;6.40;99.90;;;;;;4933300;28;20279;-85
2021/12/14 01:01:39;;;;;;;12.83;11.07;;;6.50;99.90;;;;;;4931597;28;20644;-86
2021/12/14 01:04:10;;;;;;;12.60;11.30;;;6.60;99.90;;;;;;4935211;28;20197;-86
2021/12/14 01:06:44;;;;;;;13.00;10.97;;;6.60;99.90;;;;;;4936484;28;20216;-86
2021/12/14 01:09:17;;;;;;;13.37;12.00;;;6.60;99.90;;;;;;4938935;28;20196;-85
2021/12/14 01:11:48;;;;;;;12.07;10.77;;;6.50;99.90;;;;;;4933981;28;20204;-86
2021/12/14 01:14:42;;;;;;;12.77;11.57;;;6.50;99.90;;;;;;4936903;28;20484;-85
2021/12/14 01:17:24;;;;;;;12.47;11.17;;;6.40;99.90;;;;;;4937558;28;20198;-85
2021/12/14 01:19:57;;;;;;;11.43;10.33;;;6.30;99.90;;;;;;4956542;28;20184;-84
2021/12/14 01:22:39;;;;;;;12.40;11.10;;;6.30;99.90;;;;;;4965949;28;20188;-84
2021/12/14 01:25:22;;;;;;;11.10;10.00;;;6.10;99.90;;;;;;4956428;28;20283;-85
2021/12/14 01:27:56;;;;;;;10.73;9.67;;;5.90;99.90;;;;;;4935881;28;20188;-86
2021/12/14 01:30:43;;;;;;;11.50;9.90;;;5.90;99.90;;;;;;4930659;28;20681;-87
2021/12/14 01:33:12;;;;;;;10.27;9.27;;;5.80;99.90;;;;;;4954534;28;20322;-88
2021/12/14 01:35:41;;;;;;;10.17;9.07;;;5.80;99.90;;;;;;4930614;28;20224;-86
2021/12/14 01:41:00;;;;;;;13.47;10.67;;;5.70;99.90;;;;;;4957482;28;20244;-86
2021/12/14 01:43:37;;;;;;;14.73;12.00;;;5.60;99.90;;;;;;4926275;28;20276;-86
2021/12/14 01:46:20;;;;;;;10.40;9.20;;;5.70;99.90;;;;;;4935045;28;20234;-87
2021/12/14 01:48:47;;;;;;;9.93;8.93;;;5.70;99.90;;;;;;4937052;28;20200;-87
2021/12/14 01:51:13;;;;;;;9.80;8.23;;;5.60;99.90;;;;;;4956788;28;20200;-87
2021/12/14 01:53:42;;;;;;;10.70;9.30;;;5.70;99.90;;;;;;4950022;28;20227;-87
2021/12/14 01:56:11;;;;;;;8.97;8.07;;;5.60;99.90;;;;;;4969438;28;20212;-87
2021/12/14 01:58:55;;;;;;;9.83;8.17;;;5.60;99.90;;;;;;4930668;28;20683;-87
2021/12/14 02:01:25;;;;;;;9.70;8.70;;;5.60;99.90;;;;;;5004857;28;20679;-87
2021/12/14 02:04:00;;;;;;;9.00;8.20;;;5.50;99.90;;;;;;4941016;28;20189;-88
2021/12/14 02:06:32;;;;;;;9.60;8.60;;;5.50;99.90;;;;;;4929817;28;20235;-87
2021/12/14 02:09:13;;;;;;;8.43;7.57;;;5.50;99.90;;;;;;4958446;28;20196;-88
2021/12/14 02:11:50;;;;;;;9.93;8.40;;;5.40;99.90;;;;;;4949680;28;20200;-87
2021/12/14 02:14:19;;;;;;;9.20;8.30;;;5.50;99.90;;;;;;4940019;28;20200;-87
2021/12/14 02:16:49;;;;;;;9.40;8.37;;;5.60;99.90;;;;;;4916186;28;20250;-87
2021/12/14 02:19:16;;;;;;;9.33;8.40;;;5.60;99.90;;;;;;4945210;28;20404;-87
2021/12/14 02:21:46;;;;;;;9.57;7.87;;;5.70;99.90;;;;;;4941894;28;20199;-87
2021/12/14 02:24:13;;;;;;;8.90;7.47;;;5.90;99.90;;;;;;4942852;28;20196;-87
2021/12/14 02:26:42;;;;;;;7.80;7.07;;;5.90;99.90;;;;;;4943979;28;20224;-87
2021/12/14 02:29:19;;;;;;;8.57;7.67;;;5.90;99.90;;;;;;4957884;28;20652;-87
2021/12/14 02:31:45;;;;;;;8.70;7.50;;;5.80;99.90;;;;;;4939698;28;20208;-87
2021/12/14 02:34:11;;;;;;;8.10;7.30;;;5.80;99.90;;;;;;4940495;28;20193;-87
2021/12/14 02:36:40;;;;;;;9.13;8.23;;;5.80;99.90;;;;;;4943275;28;20230;-87
2021/12/14 02:39:22;;;;;;;8.07;7.27;;;5.70;99.90;;;;;;4941555;28;20231;-87
2021/12/14 02:41:55;;;;;;;8.83;8.00;;;5.70;99.90;;;;;;4958082;28;20203;-86
2021/12/14 02:44:23;;;;;;;10.37;8.57;;;5.60;99.90;;;;;;4940028;29;20219;-87
2021/12/14 02:46:59;;;;;;;10.90;8.50;;;5.50;99.90;;;;;;4940035;28;20329;-87
2021/12/14 02:49:29;;;;;;;11.13;10.00;;;5.50;99.90;;;;;;4931087;28;20200;-87
2021/12/14 02:52:06;;;;;;;10.83;9.73;;;5.60;99.90;;;;;;4950238;28;20218;-87
2021/12/14 02:54:37;;;;;;;11.47;9.47;;;5.60;99.90;;;;;;4928523;28;20208;-87
2021/12/14 02:57:11;;;;;;;11.57;10.47;;;5.80;99.90;;;;;;4941019;28;20200;-87
2021/12/14 02:59:40;;;;;;;12.87;11.67;;;5.90;99.90;;;;;;4927917;28;20200;-87
2021/12/14 03:02:11;;;;;;;12.77;11.47;;;5.80;99.90;;;;;;4942372;28;20247;-87
2021/12/14 03:04:47;;;;;;;18.90;17.00;;;5.80;99.90;;;;;;4941396;28;20224;-87
2021/12/14 03:07:15;;;;;;;12.70;11.57;;;6.00;99.90;;;;;;4943345;28;20196;-87
2021/12/14 03:09:58;;;;;;;10.70;9.60;;;6.10;99.90;;;;;;4941018;28;20206;-88
2021/12/14 03:12:33;;;;;;;12.50;11.23;;;6.30;99.90;;;;;;4939294;29;20191;-87
2021/12/14 03:15:22;;;;;;;14.67;11.87;;;6.30;99.90;;;;;;5003673;28;20216;-87
2021/12/14 03:17:52;;;;;;;14.03;12.57;;;6.30;99.90;;;;;;4955414;28;20188;-88
2021/12/14 03:20:34;;;;;;;13.97;12.53;;;6.30;99.90;;;;;;5018424;28;20197;-87
2021/12/14 03:23:06;;;;;;;13.13;12.03;;;6.30;99.90;;;;;;4939871;28;20267;-87
2021/12/14 03:25:34;;;;;;;15.10;13.53;;;6.30;99.90;;;;;;4946914;28;20342;-89
2021/12/14 03:27:59;;;;;;;16.63;14.07;;;6.20;99.90;;;;;;4940675;28;20204;-88
2021/12/14 03:30:25;;;;;;;17.57;15.70;;;6.10;99.90;;;;;;4934143;28;20279;-87
2021/12/14 03:32:53;;;;;;;16.93;15.27;;;5.80;99.90;;;;;;4954348;28;20243;-88
2021/12/14 03:35:19;;;;;;;20.07;16.43;;;5.60;99.90;;;;;;4971333;28;20230;-88
2021/12/14 03:37:47;;;;;;;20.27;16.77;;;5.40;99.90;;;;;;4931284;28;20211;-88
2021/12/14 03:40:13;;;;;;;21.63;17.13;;;5.30;99.90;;;;;;4957910;29;20191;-88
2021/12/14 03:42:40;;;;;;;19.50;17.43;;;5.30;99.90;;;;;;4948586;28;20279;-87
2021/12/14 03:45:15;;;;;;;19.63;17.63;;;5.20;99.90;;;;;;4940551;28;20239;-87
2021/12/14 03:47:45;;;;;;;19.20;16.03;;;5.30;99.90;;;;;;4941228;28;20644;-87
2021/12/14 03:50:15;;;;;;;18.90;16.30;;;5.60;99.90;;;;;;4996632;28;20655;-87
2021/12/14 03:52:42;;;;;;;19.50;17.40;;;5.60;99.90;;;;;;4958488;28;20204;-87
2021/12/14 03:55:15;;;;;;;19.43;16.83;;;5.60;99.90;;;;;;4932861;28;20589;-87
2021/12/14 03:57:41;;;;;;;21.80;18.50;;;5.60;99.90;;;;;;4943370;29;20655;-87
2021/12/14 04:00:11;;;;;;;21.70;17.80;;;5.30;99.90;;;;;;4936057;28;20267;-87
2021/12/14 04:02:36;;;;;;;19.43;16.40;;;5.30;99.90;;;;;;4940024;28;20641;-87
2021/12/14 04:05:09;;;;;;;22.63;17.17;;;5.20;99.90;;;;;;4939631;29;20224;-88
2021/12/14 04:07:37;;;;;;;22.70;17.50;;;5.20;99.90;;;;;;4938341;28;20268;-87
2021/12/14 04:10:08;;;;;;;22.23;18.77;;;5.20;99.90;;;;;;4948640;28;20209;-87
2021/12/14 04:12:35;;;;;;;20.03;17.37;;;5.20;99.90;;;;;;4952694;28;20201;-87
2021/12/14 04:15:03;;;;;;;22.17;18.90;;;5.10;99.90;;;;;;4943925;28;20220;-87
2021/12/14 04:17:30;;;;;;;22.07;18.57;;;5.10;99.90;;;;;;4941829;28;20290;-87
2021/12/14 04:19:56;;;;;;;24.27;18.43;;;5.10;99.90;;;;;;4939684;28;20274;-87
2021/12/14 04:22:25;;;;;;;20.77;16.87;;;5.30;99.90;;;;;;4940522;29;20199;-87
2021/12/14 04:24:55;;;;;;;23.43;17.83;;;5.30;99.90;;;;;;4939314;28;20223;-88
2021/12/14 04:27:25;;;;;;;20.60;17.63;;;5.50;99.90;;;;;;4922653;28;20200;-87
2021/12/14 04:29:52;;;;;;;24.63;18.87;;;5.50;99.90;;;;;;5004224;28;20203;-87
2021/12/14 04:32:20;;;;;;;25.40;17.07;;;5.60;99.90;;;;;;4943334;28;20192;-87
2021/12/14 04:34:48;;;;;;;20.87;17.50;;;5.40;99.90;;;;;;4951037;28;20220;-88
2021/12/14 04:37:16;;;;;;;22.13;18.00;;;5.40;99.90;;;;;;4939564;28;20188;-87
2021/12/14 04:39:47;;;;;;;18.53;16.53;;;5.40;99.90;;;;;;4927423;28;20196;-87
2021/12/14 04:54:02;;;;;;;22.07;18.40;;;5.50;99.90;;;;;;4927196;28;20239;-87
2021/12/14 04:56:35;;;;;;;23.73;18.73;;;5.30;99.90;;;;;;4921641;29;20224;-87
2021/12/14 04:59:15;;;;;;;26.00;20.47;;;5.20;99.90;;;;;;5004542;28;20887;-87
2021/12/14 05:01:46;;;;;;;28.17;20.80;;;5.10;99.90;;;;;;4940321;28;20204;-87
2021/12/14 05:04:18;;;;;;;26.83;20.90;;;5.30;99.90;;;;;;4937521;28;20222;-87
2021/12/14 05:06:54;;;;;;;28.20;19.63;;;5.30;99.90;;;;;;4936931;28;20243;-87
2021/12/14 05:09:33;;;;;;;28.27;20.03;;;5.20;99.90;;;;;;4912273;28;20224;-87
2021/12/14 05:12:15;;;;;;;30.33;21.20;;;5.10;99.90;;;;;;5004453;28;20211;-87
2021/12/14 05:14:43;;;;;;;31.40;23.20;;;5.20;99.90;;;;;;4935840;28;20238;-87
2021/12/14 05:17:14;;;;;;;30.43;23.03;;;5.10;99.90;;;;;;4930620;28;20265;-87
2021/12/14 05:19:42;;;;;;;29.23;22.03;;;5.10;99.90;;;;;;4934318;29;20207;-87
2021/12/14 05:22:16;;;;;;;27.60;22.17;;;5.20;99.90;;;;;;4941037;28;20192;-88
2021/12/14 05:24:47;;;;;;;30.63;21.63;;;5.20;99.90;;;;;;4931794;28;20222;-87
2021/12/14 05:27:18;;;;;;;31.53;22.77;;;5.10;99.90;;;;;;4921927;28;20202;-87
2021/12/14 05:29:44;;;;;;;33.10;23.13;;;5.00;99.90;;;;;;4937256;28;20223;-87
2021/12/14 05:32:15;;;;;;;34.87;23.23;;;5.00;99.90;;;;;;4942044;28;20676;-87
2021/12/14 05:34:41;;;;;;;35.03;23.73;;;5.00;99.90;;;;;;4939270;28;20204;-87
2021/12/14 05:37:10;;;;;;;34.17;23.40;;;5.00;99.90;;;;;;5007609;28;20686;-88
2021/12/14 05:44:38;;;;;;;33.63;22.00;;;5.50;99.90;;;;;;4945157;28;20302;-87
2021/12/14 05:47:10;;;;;;;33.13;22.10;;;5.40;99.90;;;;;;4928002;28;20626;-87
2021/12/14 05:49:39;;;;;;;35.17;22.43;;;5.40;99.90;;;;;;4956444;28;20215;-89
2021/12/14 05:52:26;;;;;;;32.57;22.80;;;5.50;99.90;;;;;;4968198;28;20232;-87
2021/12/14 05:54:56;;;;;;;36.13;22.43;;;5.50;99.90;;;;;;4956237;28;20219;-89
2021/12/14 05:57:25;;;;;;;34.63;22.07;;;5.30;99.90;;;;;;4979421;28;20196;-87
2021/12/14 05:59:52;;;;;;;35.23;22.20;;;5.10;99.90;;;;;;4915187;28;20223;-87
2021/12/14 06:02:23;;;;;;;41.47;24.97;;;4.90;99.90;;;;;;4952694;28;20188;-89
2021/12/14 06:04:51;;;;;;;41.67;24.13;;;4.80;99.90;;;;;;4962510;28;20274;-87
2021/12/14 06:07:18;;;;;;;36.57;22.37;;;5.00;99.90;;;;;;4947135;28;20609;-87
2021/12/14 06:09:48;;;;;;;38.93;23.67;;;5.10;99.90;;;;;;4932556;28;20436;-87
2021/12/14 06:12:18;;;;;;;37.60;24.73;;;5.20;99.90;;;;;;4966674;28;20185;-88
2021/12/14 06:14:52;;;;;;;40.73;23.93;;;5.10;99.90;;;;;;4955229;28;20212;-87
2021/12/14 06:17:30;;;;;;;36.10;23.60;;;5.10;99.90;;;;;;4938289;28;20185;-87
2021/12/14 06:20:04;;;;;;;38.10;22.10;;;5.10;99.90;;;;;;4940153;28;20227;-86
2021/12/14 06:22:29;;;;;;;42.40;22.67;;;5.00;99.90;;;;;;4936730;28;20193;-86
2021/12/14 06:24:59;;;;;;;36.60;22.43;;;4.90;99.90;;;;;;5003965;28;20729;-87
2021/12/14 06:27:28;;;;;;;37.53;21.90;;;4.90;99.90;;;;;;4951548;28;20199;-87
2021/12/14 06:29:58;;;;;;;39.23;21.30;;;4.90;99.90;;;;;;4937202;28;20235;-86
2021/12/14 06:32:29;;;;;;;36.40;21.67;;;4.70;99.90;;;;;;4938570;28;20262;-87
2021/12/14 06:34:59;;;;;;;41.53;23.00;;;4.70;99.90;;;;;;4951838;28;20213;-86
2021/12/14 06:40:16;;;;;;;35.83;20.20;;;4.70;99.90;;;;;;4936766;28;20319;-86
2021/12/14 06:42:56;;;;;;;39.53;21.07;;;4.60;99.90;;;;;;4942429;28;20265;-86
2021/12/14 06:45:29;;;;;;;43.80;20.17;;;4.60;99.90;;;;;;4934780;29;20236;-86
2021/12/14 06:48:03;;;;;;;31.73;20.30;;;4.70;99.90;;;;;;4930876;28;20211;-86
2021/12/14 06:50:34;;;;;;;31.50;18.20;;;4.70;99.90;;;;;;4941596;28;20206;-87
2021/12/14 06:53:08;;;;;;;31.30;18.63;;;4.70;99.90;;;;;;4931499;28;20208;-86
2021/12/14 06:55:35;;;;;;;25.87;16.30;;;4.70;99.90;;;;;;4932478;28;20227;-88
2021/12/14 06:58:14;;;;;;;27.20;16.77;;;4.70;99.90;;;;;;4924197;28;20197;-86
2021/12/14 07:00:53;;;;;;;24.83;15.10;;;4.80;99.90;;;;;;4909414;28;20272;-86
2021/12/14 07:03:19;;;;;;;19.43;13.30;;;4.90;99.90;;;;;;4947743;28;20197;-86
2021/12/14 07:05:49;;;;;;;20.23;13.47;;;4.90;99.90;;;;;;4923541;28;20236;-85
2021/12/14 07:08:23;;;;;;;22.53;12.97;;;4.90;99.90;;;;;;4937726;28;20695;-86
2021/12/14 07:10:50;;;;;;;15.07;10.73;;;4.80;99.90;;;;;;4934120;28;20188;-86
2021/12/14 07:13:22;;;;;;;18.03;11.60;;;4.90;99.90;;;;;;4923936;29;20204;-87
2021/12/14 07:15:49;;;;;;;17.10;10.80;;;4.80;99.90;;;;;;4946601;28;20216;-85
2021/12/14 07:18:15;;;;;;;16.50;11.20;;;4.70;99.90;;;;;;4936612;28;20200;-86
2021/12/14 07:20:49;;;;;;;16.00;12.13;;;4.60;99.90;;;;;;4946624;28;20200;-86
2021/12/14 07:23:28;;;;;;;19.73;13.57;;;4.50;99.90;;;;;;4937012;29;20288;-85
2021/12/14 07:26:11;;;;;;;21.60;14.20;;;4.60;99.90;;;;;;4947647;28;20294;-86
2021/12/14 07:28:42;;;;;;;18.00;12.10;;;4.50;99.90;;;;;;4933370;28;20199;-86
2021/12/14 07:31:20;;;;;;;21.33;14.53;;;4.60;99.90;;;;;;4989890;28;20196;-87
2021/12/14 07:33:56;;;;;;;24.07;15.77;;;4.60;99.90;;;;;;4944345;28;20385;-86
2021/12/14 07:36:28;;;;;;;21.30;14.93;;;4.60;99.90;;;;;;4945986;28;20265;-86
2021/12/14 07:38:59;;;;;;;23.23;14.93;;;4.60;99.90;;;;;;4935357;28;20280;-85
2021/12/14 07:41:42;;;;;;;23.53;16.57;;;4.60;99.90;;;;;;4946770;28;20307;-86
2021/12/14 07:44:14;;;;;;;25.47;15.80;;;4.60;99.90;;;;;;4934407;28;20208;-86
2021/12/14 07:46:48;;;;;;;35.17;17.90;;;4.60;99.90;;;;;;4940206;28;20216;-86
2021/12/14 07:49:26;;;;;;;28.17;16.50;;;4.50;99.90;;;;;;4935610;28;20257;-85
2021/12/14 07:52:03;;;;;;;35.03;17.57;;;4.70;99.90;;;;;;4935522;28;20558;-86
2021/12/14 07:54:32;;;;;;;30.70;16.50;;;4.80;99.90;;;;;;4938053;28;20196;-86
2021/12/14 07:57:03;;;;;;;29.53;17.17;;;4.80;99.90;;;;;;4935094;28;20290;-86
2021/12/14 08:00:13;;;;;;;34.17;18.23;;;4.80;99.90;;;;;;4917581;28;20938;-85
2021/12/14 08:02:45;;;;;;;28.97;17.70;;;4.70;99.90;;;;;;4964470;28;20306;-86
2021/12/14 08:05:15;;;;;;;29.40;17.50;;;4.70;99.90;;;;;;4942686;29;20338;-86
2021/12/14 08:07:54;;;;;;;33.63;19.37;;;4.60;99.90;;;;;;4963451;28;20288;-86
2021/12/14 08:10:24;;;;;;;35.33;20.07;;;4.50;99.90;;;;;;4931818;28;20254;-86
2021/12/14 08:13:09;;;;;;;31.40;18.60;;;4.40;99.90;;;;;;4949624;28;20245;-88
2021/12/14 08:15:53;;;;;;;32.93;19.03;;;4.40;99.90;;;;;;4955391;28;20307;-86
2021/12/14 08:18:26;;;;;;;31.30;19.20;;;4.30;99.90;;;;;;4951835;28;20263;-86
2021/12/14 08:21:02;;;;;;;29.83;18.03;;;4.30;99.90;;;;;;4943414;28;20196;-86
2021/12/14 08:23:32;;;;;;;31.07;18.20;;;4.40;99.90;;;;;;4935078;28;20351;-86
2021/12/14 08:26:11;;;;;;;31.23;16.90;;;4.30;99.90;;;;;;5016477;28;20222;-86
2021/12/14 08:28:57;;;;;;;30.77;18.40;;;4.20;99.90;;;;;;5016508;28;20204;-86
2021/12/14 08:31:30;;;;;;;30.47;17.53;;;4.20;99.90;;;;;;5015392;28;20205;-86
2021/12/14 08:34:03;;;;;;;29.30;17.17;;;4.30;99.90;;;;;;5016505;28;20212;-86
2021/12/14 08:36:47;;;;;;;31.63;17.00;;;4.30;99.90;;;;;;5015223;28;20244;-86
2021/12/14 08:39:23;;;;;;;31.43;18.03;;;4.40;99.90;;;;;;5014070;28;20185;-86
2021/12/14 08:41:57;;;;;;;31.30;18.30;;;4.40;99.90;;;;;;4997854;28;20225;-86
2021/12/14 08:44:35;;;;;;;28.77;17.60;;;4.40;99.90;;;;;;5013942;28;20193;-87
2021/12/14 08:47:04;;;;;;;33.03;18.80;;;4.50;99.90;;;;;;5026067;28;20196;-87
2021/12/14 08:49:31;;;;;;;32.77;17.93;;;4.40;99.90;;;;;;5034429;28;20184;-86
2021/12/14 08:51:57;;;;;;;32.10;18.60;;;4.70;99.90;;;;;;5016233;28;21370;-87
2021/12/14 08:54:31;;;;;;;27.20;17.07;;;4.60;99.90;;;;;;5015011;28;20177;-89
2021/12/14 08:57:14;;;;;;;33.93;20.13;;;4.60;99.90;;;;;;5035711;28;20221;-89
2021/12/14 08:59:44;;;;;;;34.50;19.47;;;4.40;99.90;;;;;;5033355;28;20208;-87
2021/12/14 09:02:12;;;;;;;34.17;19.43;;;4.40;99.90;;;;;;5020289;28;20209;-87
2021/12/14 09:04:43;;;;;;;35.40;19.63;;;4.50;99.90;;;;;;5013494;28;20217;-87
2021/12/14 09:07:17;;;;;;;33.03;20.53;;;4.40;99.90;;;;;;5014644;28;20188;-87
2021/12/14 09:09:43;;;;;;;35.67;20.53;;;4.40;99.90;;;;;;5014681;28;20196;-87
2021/12/14 09:12:16;;;;;;;35.83;20.43;;;4.40;99.90;;;;;;5016866;28;20195;-87
2021/12/14 09:14:44;;;;;;;30.17;20.00;;;4.40;99.90;;;;;;4998648;28;20297;-87
2021/12/14 09:17:13;;;;;;;35.20;20.83;;;4.50;99.90;;;;;;5018822;28;20670;-87
2021/12/14 09:19:45;;;;;;;34.87;20.27;;;4.50;99.90;;;;;;4999433;28;20225;-87
2021/12/14 09:22:21;;;;;;;36.03;21.83;;;4.50;99.90;;;;;;5017961;28;20196;-87
2021/12/14 09:24:47;;;;;;;33.97;20.80;;;4.50;99.90;;;;;;4973322;28;20224;-87
2021/12/14 09:27:17;;;;;;;32.97;21.27;;;4.50;99.90;;;;;;4938992;28;20201;-87
2021/12/14 09:29:44;;;;;;;34.27;21.77;;;4.60;99.90;;;;;;5001523;28;20192;-88
2021/12/14 09:32:12;;;;;;;30.03;19.90;;;4.60;99.90;;;;;;5003262;28;20207;-86
2021/12/14 09:34:41;;;;;;;36.47;21.80;;;4.60;99.90;;;;;;4938916;28;20273;-86
2021/12/14 09:37:10;;;;;;;35.87;22.43;;;4.60;99.90;;;;;;4935291;28;20291;-86
2021/12/14 09:39:50;;;;;;;36.33;23.57;;;4.50;99.90;;;;;;4927330;28;20193;-85
2021/12/14 09:42:24;;;;;;;31.97;22.67;;;4.60;99.90;;;;;;4935390;29;20203;-86
2021/12/14 09:44:54;;;;;;;34.30;22.37;;;4.70;99.90;;;;;;4939110;28;20301;-86
2021/12/14 09:47:25;;;;;;;31.17;21.70;;;4.60;99.90;;;;;;4929676;28;20200;-86
2021/12/14 09:49:53;;;;;;;31.53;21.93;;;4.60;99.90;;;;;;4930666;29;20192;-86
2021/12/14 09:52:24;;;;;;;30.63;21.20;;;4.50;99.90;;;;;;4932456;28;20239;-85
2021/12/14 09:54:50;;;;;;;31.90;22.10;;;4.50;99.90;;;;;;4929218;29;20204;-86
2021/12/14 09:57:33;;;;;;;30.83;21.17;;;4.50;99.90;;;;;;4931325;28;20200;-86
2021/12/14 10:00:04;;;;;;;29.83;21.87;;;4.60;99.90;;;;;;4931288;28;20204;-86
2021/12/14 10:02:39;;;;;;;29.63;21.40;;;4.80;99.90;;;;;;4931228;28;20200;-86
2021/12/14 10:05:34;;;;;;;31.27;20.70;;;4.80;99.90;;;;;;4930202;28;20230;-87
2021/12/14 10:08:03;;;;;;;32.30;21.77;;;4.80;99.90;;;;;;4931498;28;20196;-86
2021/12/14 10:10:36;;;;;;;31.97;22.77;;;4.80;99.90;;;;;;4929905;28;20199;-86
2021/12/14 10:13:02;;;;;;;34.40;23.70;;;4.70;99.90;;;;;;4914018;28;20727;-87
2021/12/14 10:15:30;;;;;;;34.83;22.87;;;4.80;99.90;;;;;;4935897;29;20227;-86
2021/12/14 10:18:03;;;;;;;35.73;23.30;;;4.80;99.90;;;;;;5006591;28;20212;-86
2021/12/14 10:20:35;;;;;;;32.80;23.27;;;4.70;99.90;;;;;;4935671;28;20276;-86
2021/12/14 10:23:01;;;;;;;38.13;24.97;;;4.70;99.90;;;;;;4939146;29;20205;-88
2021/12/14 10:25:28;;;;;;;35.00;24.17;;;4.60;99.90;;;;;;4953882;28;20351;-87
2021/12/14 10:27:55;;;;;;;33.17;23.83;;;4.70;99.90;;;;;;4946270;28;20200;-88
2021/12/14 10:30:28;;;;;;;37.23;23.47;;;4.80;99.90;;;;;;4956370;28;20263;-87
2021/12/14 10:32:55;;;;;;;35.53;22.83;;;4.80;99.90;;;;;;4942044;28;20220;-86
2021/12/14 10:35:25;;;;;;;37.07;23.83;;;4.80;99.90;;;;;;4943668;28;20313;-87
2021/12/14 10:43:21;;;;;;;33.47;24.17;;;4.80;99.90;;;;;;4937940;28;20236;-86
2021/12/14 10:46:02;;;;;;;34.97;23.50;;;4.80;99.90;;;;;;4917062;28;20598;-86
2021/12/14 10:48:35;;;;;;;33.47;23.40;;;4.80;99.90;;;;;;4936321;28;20677;-87
2021/12/14 10:51:07;;;;;;;30.43;22.17;;;4.90;99.90;;;;;;4934437;28;20193;-87
2021/12/14 10:53:34;;;;;;;34.73;23.30;;;4.90;99.90;;;;;;4934098;28;20686;-86
2021/12/14 10:56:13;;;;;;;30.80;22.73;;;4.90;99.90;;;;;;4934720;28;20838;-86
2021/12/14 10:58:43;;;;;;;39.97;24.90;;;4.90;99.90;;;;;;4938766;28;20204;-86
2021/12/14 11:01:15;;;;;;;32.23;23.80;;;4.80;99.90;;;;;;4933745;28;20271;-87
2021/12/14 11:03:46;;;;;;;34.43;23.70;;;4.80;99.90;;;;;;4989226;28;20227;-86
2021/12/14 11:06:15;;;;;;;34.37;24.63;;;4.80;99.90;;;;;;4923894;28;20260;-86
2021/12/14 11:11:21;;;;;;;31.40;22.90;;;5.00;99.90;;;;;;4934421;28;20196;-86
2021/12/14 11:13:52;;;;;;;34.23;23.17;;;5.10;99.90;;;;;;4921443;28;20180;-86
2021/12/14 11:16:33;;;;;;;30.97;22.93;;;5.10;99.90;;;;;;4932506;28;20222;-87
2021/12/14 11:19:04;;;;;;;31.33;22.47;;;5.10;99.90;;;;;;4932117;28;20693;-87
2021/12/14 11:21:31;;;;;;;32.20;22.93;;;5.10;99.90;;;;;;4928010;28;20197;-86
2021/12/14 11:23:57;;;;;;;31.50;23.37;;;5.30;99.90;;;;;;4930584;28;20203;-84
2021/12/14 11:26:32;;;;;;;29.13;21.40;;;5.40;99.90;;;;;;4914987;28;20341;-87
2021/12/14 11:29:10;;;;;;;30.03;22.20;;;5.40;99.90;;;;;;4932834;28;20783;-87
2021/12/14 11:31:44;;;;;;;29.07;22.23;;;5.40;99.90;;;;;;4946571;28;20184;-84
2021/12/14 11:34:13;;;;;;;29.93;22.20;;;5.30;99.90;;;;;;4953103;28;20188;-86
2021/12/14 11:36:43;;;;;;;32.23;22.50;;;5.40;99.90;;;;;;4918244;28;20200;-86
2021/12/14 11:39:25;;;;;;;35.17;24.77;;;5.20;99.90;;;;;;4942638;28;20177;-82
2021/12/14 11:41:54;;;;;;;35.30;23.73;;;5.10;99.90;;;;;;4956396;28;20180;-83
2021/12/14 11:44:25;;;;;;;32.90;23.47;;;5.10;99.90;;;;;;4947806;28;20212;-84
2021/12/14 11:47:47;;;;;;;31.93;24.60;;;5.10;99.90;;;;;;4938685;28;20242;-86
2021/12/14 11:50:30;;;;;;;32.97;24.30;;;5.10;99.90;;;;;;4900907;29;20257;-84
2021/12/14 11:53:00;;;;;;;34.00;23.70;;;5.20;99.90;;;;;;4931571;28;20207;-85
2021/12/14 11:55:44;;;;;;;33.80;23.70;;;5.20;99.90;;;;;;4931167;29;20224;-86
2021/12/14 11:58:23;;;;;;;32.57;24.97;;;5.10;99.90;;;;;;4932101;28;20204;-86
2021/12/14 12:01:05;;;;;;;38.27;25.87;;;5.10;99.90;;;;;;4933745;28;20196;-86
2021/12/14 12:03:52;;;;;;;31.53;24.53;;;5.10;99.90;;;;;;4937581;28;20196;-85
2021/12/14 12:09:30;;;;;;;36.77;26.70;;;5.10;99.90;;;;;;4932109;28;20200;-86
2021/12/14 12:12:05;;;;;;;36.10;24.87;;;5.00;99.90;;;;;;4936291;28;20185;-86
2021/12/14 12:14:51;;;;;;;32.93;23.57;;;5.20;99.90;;;;;;4932496;28;20217;-84
2021/12/14 12:17:22;;;;;;;28.83;22.87;;;5.10;99.90;;;;;;4934805;28;20208;-87
2021/12/14 12:19:58;;;;;;;33.93;24.27;;;5.10;99.90;;;;;;5001695;28;20199;-87
2021/12/14 12:22:25;;;;;;;31.67;24.07;;;5.30;99.90;;;;;;4933738;28;20204;-87
2021/12/14 12:24:54;;;;;;;32.17;23.70;;;5.50;99.90;;;;;;4935265;28;20243;-87
2021/12/14 12:27:29;;;;;;;31.80;24.33;;;5.40;99.90;;;;;;4937608;28;20287;-86
2021/12/14 12:30:04;;;;;;;33.53;24.50;;;5.20;99.90;;;;;;4932292;28;20222;-85
2021/12/14 12:32:30;;;;;;;35.77;25.73;;;5.20;99.90;;;;;;4933825;28;20204;-87
2021/12/14 12:34:56;;;;;;;35.53;26.17;;;5.20;99.90;;;;;;4935055;28;20560;-86
2021/12/14 12:37:39;;;;;;;31.70;24.87;;;5.10;99.90;;;;;;4934689;29;20537;-84
2021/12/14 12:40:09;;;;;;;33.57;24.97;;;5.10;99.90;;;;;;4945917;28;20353;-85
2021/12/14 12:42:36;;;;;;;33.60;25.10;;;5.20;99.90;;;;;;4945954;28;20264;-84
2021/12/14 12:45:03;;;;;;;34.43;24.87;;;5.10;99.90;;;;;;4954626;28;20204;-84
2021/12/14 12:47:29;;;;;;;35.30;25.80;;;5.00;99.90;;;;;;4946147;28;20264;-87
2021/12/14 12:49:57;;;;;;;32.37;24.17;;;4.90;99.90;;;;;;4936531;28;20242;-86
2021/12/14 12:52:29;;;;;;;29.37;22.40;;;4.90;99.90;;;;;;4935303;28;20204;-86
2021/12/14 12:55:02;;;;;;;34.73;24.40;;;5.10;99.90;;;;;;4928928;28;20746;-87
2021/12/14 12:57:32;;;;;;;31.20;24.60;;;5.20;99.90;;;;;;4919382;28;20181;-87
2021/12/14 13:00:14;;;;;;;30.77;24.07;;;5.10;99.90;;;;;;4931227;28;20253;-87
2021/12/14 13:02:58;;;;;;;37.17;24.50;;;5.10;99.90;;;;;;4932009;28;20211;-86
2021/12/14 13:05:26;;;;;;;33.20;25.13;;;5.30;99.90;;;;;;4932758;28;20223;-87
2021/12/14 13:08:01;;;;;;;30.53;23.67;;;5.40;99.90;;;;;;4932749;28;20203;-87
2021/12/14 13:10:27;;;;;;;32.10;24.73;;;5.40;99.90;;;;;;4933302;28;20195;-86
2021/12/14 13:13:00;;;;;;;32.90;24.17;;;5.40;99.90;;;;;;4934529;28;20244;-84
2021/12/14 13:15:36;;;;;;;30.47;22.87;;;5.50;99.90;;;;;;5002198;28;20688;-86
2021/12/14 13:18:20;;;;;;;35.03;24.07;;;5.50;99.90;;;;;;4939818;28;20287;-86
2021/12/14 13:20:49;;;;;;;26.47;22.30;;;5.70;99.90;;;;;;4937798;28;20254;-87
2021/12/14 13:23:15;;;;;;;29.33;23.27;;;5.60;99.90;;;;;;4934607;29;20192;-85
2021/12/14 13:25:46;;;;;;;27.10;21.97;;;5.40;99.90;;;;;;5007775;28;20232;-86
2021/12/14 13:28:14;;;;;;;33.60;23.03;;;5.50;99.90;;;;;;5015582;28;20180;-86
2021/12/14 13:30:42;;;;;;;27.67;22.40;;;5.60;99.90;;;;;;5000194;28;20223;-87
2021/12/14 13:33:29;;;;;;;27.13;21.80;;;5.80;99.90;;;;;;5015164;28;20265;-86
2021/12/14 13:35:55;;;;;;;27.13;21.30;;;5.90;99.90;;;;;;5017010;28;20223;-85
2021/12/14 13:38:21;;;;;;;26.30;22.53;;;5.90;99.90;;;;;;4996909;28;20285;-87
2021/12/14 13:40:48;;;;;;;29.70;22.43;;;5.70;99.90;;;;;;5015978;28;20201;-88
2021/12/14 13:43:16;;;;;;;25.87;20.67;;;5.80;99.90;;;;;;5016528;28;20200;-87